Nearby METAR Reports

 

KHCR - Heber/Russ Mcdon, Utah, USA
Distance from station: SSW 18mi, 29km
Updated: Mon, 24-Feb-2020 3:50am MST
Partly cloudy
Partly cloudy
 Wind from E
Wind: E 10 mph , 17 km/h
Temperature: 28°F , -2°C
Wind Chill: 19°F , -7°C
Dew Point: 19°F , -7°C
Humidity: 69%
Barometer: 30.13 inHg , 1020.3 hPa
Clouds: Partly cloudy
Visibility: 10 miles , 16 km
Cloud details: Partly cloudy 7000 ft
Partly cloudy 8500 ft
2020/02/24 10:50 KHCR 241050Z AUTO 10009KT 10SM SCT070 SCT085 M02/M07 A3013 RMK AO2
KSLC - Salt Lake City, Utah, USA
Distance from station: W 35mi, 57km
Updated: Mon, 24-Feb-2020 3:54am MST
Mostly cloudy
Mostly cloudy
 Wind from SW
Wind: SW 7 mph , 11 km/h
Temperature: 36°F , 2°C
Wind Chill: 30°F , -1°C
Dew Point: 19°F , -7°C
Humidity: 52%
Barometer: 30.21 inHg , 1023 hPa
Clouds: Mostly cloudy
Visibility: 10 miles , 16 km
Cloud details: Mostly cloudy 6500 ft
Mostly cloudy 9000 ft
2020/02/24 10:54 KSLC 241054Z 23006KT 10SM BKN065 BKN090 02/M07 A3021 RMK AO2 SLP223 T00171067
 
KU42 - Salt Lake Muni, Utah, USA
Distance from station: WSW 37mi, 59km
Updated: Mon, 24-Feb-2020 4:15am MST
Overcast
Overcast
 Wind from NW
Wind: NW 16 mph , 26 km/h, Gust: 22 mph , 35 km/h
Temperature: 34°F , 1°C
Wind Chill: 24°F , -4°C
Dew Point: 21°F , -6°C
Humidity: 60%
Barometer: 30.23 inHg , 1023.7 hPa
Clouds: Overcast
Visibility: 10 miles , 16 km
Cloud details: Partly cloudy 7500 ft
Overcast 8500 ft
2020/02/24 11:15 KU42 241115Z AUTO 32014G19KT 10SM SCT075 OVC085 01/M06 A3023 RMK AO1 T00101062
KEVW - Evanston, Wyoming, USA
Distance from station: NNE 40mi, 64km
Updated: Mon, 24-Feb-2020 3:53am MST
Haze, Clear
Haze, Clear
 Wind from NW
Wind: NW 26 mph , 43 km/h, Gust: 37 mph , 59 km/h
Temperature: 18°F , -8°C
Wind Chill: -0°F , -18°C
Dew Point: 9°F , -13°C
Humidity: 68%
Barometer: 30.03 inHg , 1016.9 hPa
Summary: Haze
Clouds: Clear
Visibility: 3 miles , 5 km
2020/02/24 10:53 KEVW 241053Z AUTO 31023G32KT 3SM HZ CLR M08/M13 A3003 RMK AO2 PK WND 28045/1009 WSHFT 1027 SLP187 T10781133
 
KPVU - Provo Muni, Utah, USA
Distance from station: SSW 41mi, 67km
Updated: Mon, 24-Feb-2020 3:56am MST
Overcast
Overcast
 Wind from NNW
Wind: NNW 23 mph , 37 km/h, Gust: 35 mph , 56 km/h
Temperature: 36°F , 2°C
Wind Chill: 24°F , -4°C
Dew Point: 19°F , -7°C
Humidity: 52%
Barometer: 30.19 inHg , 1022.4 hPa
Clouds: Overcast
Visibility: 10 miles , 16 km
Cloud details: Overcast 8000 ft
2020/02/24 10:56 KPVU 241056Z AUTO 34020G30KT 10SM OVC080 02/M07 A3019 RMK AO2 PK WND 34043/1023 SLP220 T00171067 FZRANO
KHIF - Hill Afb/Ogden, Utah, USA
Distance from station: NW 45mi, 72km
Updated: Mon, 24-Feb-2020 3:58am MST

 Wind from N
Wind: N 15 mph , 24 km/h, Gust: 24 mph , 39 km/h
Visibility: 10 miles , 16 km
2020/02/24 10:58 KHIF 241058Z AUTO 35013G21KT 10SM M M01/M10 A3018 RMK AO2 PK WND 35028/37 SLP218 T10081105 FZRANO $
 
KOGD - Ogden, Utah, USA
Distance from station: NW 50mi, 81km
Updated: Mon, 24-Feb-2020 3:53am MST
Clear
Clear
 Wind from N
Wind: N 8 mph , 13 km/h
Temperature: 34°F , 1°C
Wind Chill: 27°F , -3°C
Dew Point: 12°F , -11°C
Humidity: 41%
Barometer: 30.19 inHg , 1022.4 hPa
Clouds: Clear
Visibility: 10 miles , 16 km
2020/02/24 10:53 KOGD 241053Z AUTO 01007KT 10SM CLR 01/M11 A3019 RMK AO2 PK WND 33028/1031 SLP218 T00061106